sensor_id;sensor_type;location;lat;lon;timestamp;pressure;altitude;pressure_sealevel;temperature
29701;BMP280;57917;51.380;-0.176;2022-08-11T00:00:10;102070.47;;;20.30
29701;BMP280;57917;51.380;-0.176;2022-08-11T00:05:58;102075.31;;;19.98
29701;BMP280;57917;51.380;-0.176;2022-08-11T00:11:50;102075.38;;;20.06
29701;BMP280;57917;51.380;-0.176;2022-08-11T00:17:38;102075.66;;;19.96
29701;BMP280;57917;51.380;-0.176;2022-08-11T00:23:26;102078.34;;;19.74
29701;BMP280;57917;51.380;-0.176;2022-08-11T00:29:14;102065.03;;;19.69
29701;BMP280;57917;51.380;-0.176;2022-08-11T00:35:04;102074.84;;;19.96
29701;BMP280;57917;51.380;-0.176;2022-08-11T00:41:30;102064.63;;;20.06
29701;BMP280;57917;51.380;-0.176;2022-08-11T00:53:31;102056.38;;;20.03
29701;BMP280;57917;51.380;-0.176;2022-08-11T00:59:44;102051.81;;;20.03
29701;BMP280;57917;51.380;-0.176;2022-08-11T01:11:52;102041.47;;;19.66
29701;BMP280;57917;51.380;-0.176;2022-08-11T01:42:43;102025.47;;;19.39
29701;BMP280;57917;51.380;-0.176;2022-08-11T01:55:42;102015.41;;;19.45
29701;BMP280;57917;51.380;-0.176;2022-08-11T02:01:50;102023.56;;;19.40
29701;BMP280;57917;51.380;-0.176;2022-08-11T02:07:53;102022.88;;;19.34
29701;BMP280;57917;51.380;-0.176;2022-08-11T02:20:06;102008.00;;;19.50
29701;BMP280;57917;51.380;-0.176;2022-08-11T02:26:21;102008.44;;;19.44
29701;BMP280;57917;51.380;-0.176;2022-08-11T02:32:30;102014.84;;;19.34
29701;BMP280;57917;51.380;-0.176;2022-08-11T02:38:54;101998.84;;;19.29
29701;BMP280;57917;51.380;-0.176;2022-08-11T02:57:22;101988.25;;;19.24
29701;BMP280;57917;51.380;-0.176;2022-08-11T03:03:52;101981.63;;;19.08
29701;BMP280;57917;51.380;-0.176;2022-08-11T03:09:52;101995.47;;;19.02
29701;BMP280;57917;51.380;-0.176;2022-08-11T03:15:47;101990.19;;;19.10
29701;BMP280;57917;51.380;-0.176;2022-08-11T03:34:25;101995.56;;;18.97
29701;BMP280;57917;51.380;-0.176;2022-08-11T03:46:48;101988.16;;;18.94
29701;BMP280;57917;51.380;-0.176;2022-08-11T04:05:19;101989.13;;;18.84
29701;BMP280;57917;51.380;-0.176;2022-08-11T04:11:23;101989.53;;;18.77
29701;BMP280;57917;51.380;-0.176;2022-08-11T04:55:09;101964.16;;;18.61
29701;BMP280;57917;51.380;-0.176;2022-08-11T05:14:17;101983.94;;;18.52
29701;BMP280;57917;51.380;-0.176;2022-08-11T05:20:27;101967.44;;;18.94
29701;BMP280;57917;51.380;-0.176;2022-08-11T05:27:10;101981.72;;;19.03
29701;BMP280;57917;51.380;-0.176;2022-08-11T05:33:32;101963.25;;;20.63
29701;BMP280;57917;51.380;-0.176;2022-08-11T05:40:08;101956.44;;;21.08
29701;BMP280;57917;51.380;-0.176;2022-08-11T05:46:13;101961.44;;;21.35
29701;BMP280;57917;51.380;-0.176;2022-08-11T05:52:24;101969.44;;;20.72
29701;BMP280;57917;51.380;-0.176;2022-08-11T05:58:51;101975.41;;;20.04
29701;BMP280;57917;51.380;-0.176;2022-08-11T06:04:39;101980.53;;;19.53
29701;BMP280;57917;51.380;-0.176;2022-08-11T06:10:32;101986.31;;;19.03
29701;BMP280;57917;51.380;-0.176;2022-08-11T06:16:21;101988.06;;;19.07
29701;BMP280;57917;51.380;-0.176;2022-08-11T06:22:10;102007.94;;;18.84
29701;BMP280;57917;51.380;-0.176;2022-08-11T06:28:03;101987.00;;;19.30
29701;BMP280;57917;51.380;-0.176;2022-08-11T06:46:30;102002.88;;;19.40
29701;BMP280;57917;51.380;-0.176;2022-08-11T06:52:18;101992.50;;;19.47
29701;BMP280;57917;51.380;-0.176;2022-08-11T06:58:37;101988.25;;;19.77
29701;BMP280;57917;51.380;-0.176;2022-08-11T07:16:54;101993.81;;;19.80
29701;BMP280;57917;51.380;-0.176;2022-08-11T07:22:52;101998.16;;;19.98
29701;BMP280;57917;51.380;-0.176;2022-08-11T07:29:02;101991.19;;;20.36
29701;BMP280;57917;51.380;-0.176;2022-08-11T07:34:58;101993.97;;;20.70
29701;BMP280;57917;51.380;-0.176;2022-08-11T07:40:48;101987.03;;;21.03
29701;BMP280;57917;51.380;-0.176;2022-08-11T07:46:43;101989.38;;;21.30
29701;BMP280;57917;51.380;-0.176;2022-08-11T07:52:49;101988.56;;;21.38
29701;BMP280;57917;51.380;-0.176;2022-08-11T07:58:39;101982.56;;;22.17
29701;BMP280;57917;51.380;-0.176;2022-08-11T08:04:54;101968.63;;;23.41
29701;BMP280;57917;51.380;-0.176;2022-08-11T08:11:01;101967.31;;;23.71
29701;BMP280;57917;51.380;-0.176;2022-08-11T08:17:17;101960.56;;;24.41
29701;BMP280;57917;51.380;-0.176;2022-08-11T08:23:26;101968.94;;;24.91
29701;BMP280;57917;51.380;-0.176;2022-08-11T08:29:20;101948.53;;;25.40
29701;BMP280;57917;51.380;-0.176;2022-08-11T08:35:29;101957.09;;;25.92
29701;BMP280;57917;51.380;-0.176;2022-08-11T08:41:25;101953.72;;;26.74
29701;BMP280;57917;51.380;-0.176;2022-08-11T08:47:15;101944.44;;;26.98
29701;BMP280;57917;51.380;-0.176;2022-08-11T08:53:25;101952.81;;;27.34
29701;BMP280;57917;51.380;-0.176;2022-08-11T08:59:16;101946.69;;;27.96
29701;BMP280;57917;51.380;-0.176;2022-08-11T09:05:04;101933.44;;;27.95
29701;BMP280;57917;51.380;-0.176;2022-08-11T09:10:56;101926.44;;;27.94
29701;BMP280;57917;51.380;-0.176;2022-08-11T09:17:06;101920.44;;;28.11
29701;BMP280;57917;51.380;-0.176;2022-08-11T09:23:00;101930.78;;;28.35
29701;BMP280;57917;51.380;-0.176;2022-08-11T09:29:28;101926.09;;;29.22
29701;BMP280;57917;51.380;-0.176;2022-08-11T09:35:16;101912.75;;;29.03
29701;BMP280;57917;51.380;-0.176;2022-08-11T09:41:08;101902.06;;;29.42
29701;BMP280;57917;51.380;-0.176;2022-08-11T09:46:57;101908.41;;;28.55
29701;BMP280;57917;51.380;-0.176;2022-08-11T09:52:49;101906.78;;;28.91
29701;BMP280;57917;51.380;-0.176;2022-08-11T09:58:58;101895.94;;;29.66
29701;BMP280;57917;51.380;-0.176;2022-08-11T10:04:47;101882.66;;;29.61
29701;BMP280;57917;51.380;-0.176;2022-08-11T10:10:36;101877.41;;;30.34
29701;BMP280;57917;51.380;-0.176;2022-08-11T10:16:27;101864.50;;;30.28
29701;BMP280;57917;51.380;-0.176;2022-08-11T10:22:15;101863.34;;;30.43
29701;BMP280;57917;51.380;-0.176;2022-08-11T10:28:22;101857.84;;;30.78
29701;BMP280;57917;51.380;-0.176;2022-08-11T10:34:30;101857.44;;;30.69
29701;BMP280;57917;51.380;-0.176;2022-08-11T10:40:18;101850.44;;;30.68
29701;BMP280;57917;51.380;-0.176;2022-08-11T10:46:09;101854.28;;;30.91
29701;BMP280;57917;51.380;-0.176;2022-08-11T10:52:19;101857.31;;;31.25
29701;BMP280;57917;51.380;-0.176;2022-08-11T10:58:24;101860.38;;;31.40
29701;BMP280;57917;51.380;-0.176;2022-08-11T11:04:56;101835.63;;;31.61
29701;BMP280;57917;51.380;-0.176;2022-08-11T11:10:46;101844.63;;;32.16
29701;BMP280;57917;51.380;-0.176;2022-08-11T11:16:36;101838.88;;;32.00
29701;BMP280;57917;51.380;-0.176;2022-08-11T11:22:43;101829.97;;;32.37
29701;BMP280;57917;51.380;-0.176;2022-08-11T11:28:45;101825.97;;;31.43
29701;BMP280;57917;51.380;-0.176;2022-08-11T11:41:13;101808.47;;;32.32
29701;BMP280;57917;51.380;-0.176;2022-08-11T11:47:13;101821.59;;;31.56
29701;BMP280;57917;51.380;-0.176;2022-08-11T11:53:04;101810.41;;;31.91
29701;BMP280;57917;51.380;-0.176;2022-08-11T11:58:51;101808.63;;;31.67
29701;BMP280;57917;51.380;-0.176;2022-08-11T12:05:00;101798.97;;;31.41
29701;BMP280;57917;51.380;-0.176;2022-08-11T12:10:57;101793.41;;;31.55
29701;BMP280;57917;51.380;-0.176;2022-08-11T12:17:03;101781.00;;;31.37
29701;BMP280;57917;51.380;-0.176;2022-08-11T12:22:51;101765.41;;;31.88
29701;BMP280;57917;51.380;-0.176;2022-08-11T12:29:10;101758.78;;;31.86
29701;BMP280;57917;51.380;-0.176;2022-08-11T12:35:00;101759.41;;;32.00
29701;BMP280;57917;51.380;-0.176;2022-08-11T12:40:51;101756.09;;;32.23
29701;BMP280;57917;51.380;-0.176;2022-08-11T12:47:03;101765.22;;;31.62
29701;BMP280;57917;51.380;-0.176;2022-08-11T12:52:51;101748.16;;;31.91
29701;BMP280;57917;51.380;-0.176;2022-08-11T12:58:41;101742.13;;;32.10
29701;BMP280;57917;51.380;-0.176;2022-08-11T13:04:33;101739.00;;;31.64
29701;BMP280;57917;51.380;-0.176;2022-08-11T13:10:38;101738.53;;;31.73
29701;BMP280;57917;51.380;-0.176;2022-08-11T13:16:47;101727.09;;;31.30
29701;BMP280;57917;51.380;-0.176;2022-08-11T13:22:56;101716.47;;;31.36
29701;BMP280;57917;51.380;-0.176;2022-08-11T13:28:46;101723.97;;;31.28
29701;BMP280;57917;51.380;-0.176;2022-08-11T13:34:33;101719.28;;;31.29
29701;BMP280;57917;51.380;-0.176;2022-08-11T13:40:27;101705.16;;;31.38
29701;BMP280;57917;51.380;-0.176;2022-08-11T13:46:35;101718.00;;;31.47
29701;BMP280;57917;51.380;-0.176;2022-08-11T13:52:22;101711.94;;;31.16
29701;BMP280;57917;51.380;-0.176;2022-08-11T13:58:10;101701.22;;;31.42
29701;BMP280;57917;51.380;-0.176;2022-08-11T14:04:31;101698.59;;;31.25
29701;BMP280;57917;51.380;-0.176;2022-08-11T14:10:23;101705.59;;;31.29
29701;BMP280;57917;51.380;-0.176;2022-08-11T14:16:22;101699.16;;;30.95
29701;BMP280;57917;51.380;-0.176;2022-08-11T14:22:12;101698.34;;;31.02
29701;BMP280;57917;51.380;-0.176;2022-08-11T14:28:01;101693.63;;;31.06
29701;BMP280;57917;51.380;-0.176;2022-08-11T14:34:11;101699.78;;;31.24
29701;BMP280;57917;51.380;-0.176;2022-08-11T14:40:00;101692.13;;;30.94
29701;BMP280;57917;51.380;-0.176;2022-08-11T14:46:08;101683.50;;;30.96
29701;BMP280;57917;51.380;-0.176;2022-08-11T14:52:15;101681.19;;;30.94
29701;BMP280;57917;51.380;-0.176;2022-08-11T14:58:03;101681.53;;;31.03
29701;BMP280;57917;51.380;-0.176;2022-08-11T15:03:51;101665.69;;;30.67
29701;BMP280;57917;51.380;-0.176;2022-08-11T15:10:00;101665.63;;;30.84
29701;BMP280;57917;51.380;-0.176;2022-08-11T15:15:59;101665.56;;;30.95
29701;BMP280;57917;51.380;-0.176;2022-08-11T15:22:04;101659.38;;;30.77
29701;BMP280;57917;51.380;-0.176;2022-08-11T15:28:17;101669.56;;;30.66
29701;BMP280;57917;51.380;-0.176;2022-08-11T15:34:27;101660.16;;;30.81
29701;BMP280;57917;51.380;-0.176;2022-08-11T15:40:36;101655.59;;;30.57
29701;BMP280;57917;51.380;-0.176;2022-08-11T15:46:45;101657.16;;;30.51
29701;BMP280;57917;51.380;-0.176;2022-08-11T15:52:47;101655.69;;;30.22
29701;BMP280;57917;51.380;-0.176;2022-08-11T15:58:40;101652.94;;;30.29
29701;BMP280;57917;51.380;-0.176;2022-08-11T16:05:10;101645.16;;;30.17
29701;BMP280;57917;51.380;-0.176;2022-08-11T16:10:59;101642.38;;;30.34
29701;BMP280;57917;51.380;-0.176;2022-08-11T16:16:50;101636.19;;;30.02
29701;BMP280;57917;51.380;-0.176;2022-08-11T16:22:42;101637.31;;;30.19
29701;BMP280;57917;51.380;-0.176;2022-08-11T16:28:56;101625.25;;;30.20
29701;BMP280;57917;51.380;-0.176;2022-08-11T16:34:45;101623.72;;;30.12
29701;BMP280;57917;51.380;-0.176;2022-08-11T16:40:53;101624.53;;;29.95
29701;BMP280;57917;51.380;-0.176;2022-08-11T16:46:41;101628.81;;;29.75
29701;BMP280;57917;51.380;-0.176;2022-08-11T16:52:55;101611.25;;;29.97
29701;BMP280;57917;51.380;-0.176;2022-08-11T16:58:44;101621.81;;;29.81
29701;BMP280;57917;51.380;-0.176;2022-08-11T17:04:52;101613.59;;;29.95
29701;BMP280;57917;51.380;-0.176;2022-08-11T17:11:03;101606.22;;;29.64
29701;BMP280;57917;51.380;-0.176;2022-08-11T17:17:14;101608.16;;;29.74
29701;BMP280;57917;51.380;-0.176;2022-08-11T17:23:13;101594.13;;;29.65
29701;BMP280;57917;51.380;-0.176;2022-08-11T17:29:22;101593.31;;;29.26
29701;BMP280;57917;51.380;-0.176;2022-08-11T17:35:24;101592.94;;;29.52
29701;BMP280;57917;51.380;-0.176;2022-08-11T17:41:19;101585.50;;;29.17
29701;BMP280;57917;51.380;-0.176;2022-08-11T17:47:26;101585.88;;;29.09
29701;BMP280;57917;51.380;-0.176;2022-08-11T17:53:39;101587.44;;;29.03
29701;BMP280;57917;51.380;-0.176;2022-08-11T18:00:08;101585.50;;;29.00
29701;BMP280;57917;51.380;-0.176;2022-08-11T18:06:00;101590.53;;;28.87
29701;BMP280;57917;51.380;-0.176;2022-08-11T18:11:51;101585.72;;;28.53
29701;BMP280;57917;51.380;-0.176;2022-08-11T18:17:58;101586.88;;;28.48
29701;BMP280;57917;51.380;-0.176;2022-08-11T18:24:11;101610.19;;;28.39
29701;BMP280;57917;51.380;-0.176;2022-08-11T18:30:33;101602.34;;;28.30
29701;BMP280;57917;51.380;-0.176;2022-08-11T18:37:26;101606.66;;;27.77
29701;BMP280;57917;51.380;-0.176;2022-08-11T18:43:36;101622.88;;;27.67
29701;BMP280;57917;51.380;-0.176;2022-08-11T18:49:58;101629.69;;;27.47
29701;BMP280;57917;51.380;-0.176;2022-08-11T18:56:26;101627.97;;;27.32
29701;BMP280;57917;51.380;-0.176;2022-08-11T19:02:39;101632.41;;;27.14
29701;BMP280;57917;51.380;-0.176;2022-08-11T19:08:52;101636.31;;;27.13
29701;BMP280;57917;51.380;-0.176;2022-08-11T19:15:00;101633.34;;;26.62
29701;BMP280;57917;51.380;-0.176;2022-08-11T19:21:09;101646.97;;;26.40
29701;BMP280;57917;51.380;-0.176;2022-08-11T19:27:17;101640.25;;;26.30
29701;BMP280;57917;51.380;-0.176;2022-08-11T19:33:27;101638.81;;;26.14
29701;BMP280;57917;51.380;-0.176;2022-08-11T19:40:00;101656.88;;;26.29
29701;BMP280;57917;51.380;-0.176;2022-08-11T19:46:10;101659.66;;;25.87
29701;BMP280;57917;51.380;-0.176;2022-08-11T19:52:17;101681.16;;;25.77
29701;BMP280;57917;51.380;-0.176;2022-08-11T19:58:26;101678.78;;;25.72
29701;BMP280;57917;51.380;-0.176;2022-08-11T20:04:36;101680.91;;;25.44
29701;BMP280;57917;51.380;-0.176;2022-08-11T20:11:13;101683.66;;;25.06
29701;BMP280;57917;51.380;-0.176;2022-08-11T20:17:24;101699.66;;;24.95
29701;BMP280;57917;51.380;-0.176;2022-08-11T20:23:31;101694.94;;;24.92
29701;BMP280;57917;51.380;-0.176;2022-08-11T20:29:37;101692.25;;;24.77
29701;BMP280;57917;51.380;-0.176;2022-08-11T20:35:42;101707.84;;;24.49
29701;BMP280;57917;51.380;-0.176;2022-08-11T20:41:49;101706.16;;;24.29
29701;BMP280;57917;51.380;-0.176;2022-08-11T20:47:57;101712.84;;;24.62
29701;BMP280;57917;51.380;-0.176;2022-08-11T20:54:04;101712.78;;;24.16
29701;BMP280;57917;51.380;-0.176;2022-08-11T21:00:29;101714.25;;;24.13
29701;BMP280;57917;51.380;-0.176;2022-08-11T21:06:40;101719.78;;;24.17
29701;BMP280;57917;51.380;-0.176;2022-08-11T21:12:48;101730.91;;;23.72
29701;BMP280;57917;51.380;-0.176;2022-08-11T21:19:22;101741.41;;;23.62
29701;BMP280;57917;51.380;-0.176;2022-08-11T21:25:53;101737.38;;;23.56
29701;BMP280;57917;51.380;-0.176;2022-08-11T21:32:00;101734.06;;;23.23
29701;BMP280;57917;51.380;-0.176;2022-08-11T21:38:05;101746.66;;;23.19
29701;BMP280;57917;51.380;-0.176;2022-08-11T21:44:11;101748.47;;;22.91
29701;BMP280;57917;51.380;-0.176;2022-08-11T21:50:22;101758.16;;;23.04
29701;BMP280;57917;51.380;-0.176;2022-08-11T21:56:29;101748.91;;;22.93
29701;BMP280;57917;51.380;-0.176;2022-08-11T22:02:37;101752.97;;;22.87
29701;BMP280;57917;51.380;-0.176;2022-08-11T22:08:43;101767.69;;;22.65
29701;BMP280;57917;51.380;-0.176;2022-08-11T22:14:53;101757.47;;;22.59
29701;BMP280;57917;51.380;-0.176;2022-08-11T22:20:59;101751.16;;;22.79
29701;BMP280;57917;51.380;-0.176;2022-08-11T22:27:25;101749.53;;;22.54
29701;BMP280;57917;51.380;-0.176;2022-08-11T22:33:31;101751.56;;;22.45
29701;BMP280;57917;51.380;-0.176;2022-08-11T22:39:52;101761.31;;;22.04
29701;BMP280;57917;51.380;-0.176;2022-08-11T22:46:03;101768.59;;;22.25
29701;BMP280;57917;51.380;-0.176;2022-08-11T22:52:09;101770.00;;;22.43
29701;BMP280;57917;51.380;-0.176;2022-08-11T22:58:16;101768.66;;;22.49
29701;BMP280;57917;51.380;-0.176;2022-08-11T23:04:22;101770.47;;;22.57
29701;BMP280;57917;51.380;-0.176;2022-08-11T23:10:28;101768.66;;;22.49
29701;BMP280;57917;51.380;-0.176;2022-08-11T23:16:34;101772.72;;;22.43
29701;BMP280;57917;51.380;-0.176;2022-08-11T23:22:43;101772.50;;;22.60
29701;BMP280;57917;51.380;-0.176;2022-08-11T23:28:51;101781.50;;;22.52
29701;BMP280;57917;51.380;-0.176;2022-08-11T23:34:59;101776.53;;;22.54
29701;BMP280;57917;51.380;-0.176;2022-08-11T23:41:25;101774.91;;;22.41
29701;BMP280;57917;51.380;-0.176;2022-08-11T23:47:30;101764.47;;;22.39
29701;BMP280;57917;51.380;-0.176;2022-08-11T23:53:38;101764.66;;;22.01
29701;BMP280;57917;51.380;-0.176;2022-08-11T23:59:45;101759.25;;;22.01
